createdAt,value
2023-04-19T00:01:17.148Z,10.30
2023-04-19T00:03:44.129Z,10.40
2023-04-19T00:06:10.919Z,10.40
2023-04-19T00:08:37.543Z,10.40
2023-04-19T00:11:04.134Z,10.50
2023-04-19T00:13:30.822Z,10.60
2023-04-19T00:15:57.407Z,10.50
2023-04-19T00:18:24.209Z,10.50
2023-04-19T00:20:51.152Z,10.50
2023-04-19T00:23:17.889Z,10.50
2023-04-19T00:25:46.426Z,10.50
2023-04-19T00:28:13.004Z,10.50
2023-04-19T00:30:39.596Z,10.50
2023-04-19T00:33:12.507Z,10.50
2023-04-19T00:35:42.286Z,10.50
2023-04-19T00:38:09.097Z,10.40
2023-04-19T00:40:37.390Z,10.40
2023-04-19T00:43:04.096Z,10.30
2023-04-19T00:45:33.128Z,10.30
2023-04-19T00:48:01.233Z,10.30
2023-04-19T00:50:28.567Z,10.30
2023-04-19T00:52:56.238Z,10.20
2023-04-19T00:55:23.536Z,10.20
2023-04-19T00:57:51.910Z,10.20
2023-04-19T01:00:19.961Z,10.20
2023-04-19T01:02:48.121Z,10.00
2023-04-19T01:05:15.172Z,10.00
2023-04-19T01:07:42.811Z,9.90
2023-04-19T01:10:10.427Z,9.90
2023-04-19T01:12:37.144Z,9.90
2023-04-19T01:15:04.332Z,9.90
2023-04-19T01:17:33.055Z,9.90
2023-04-19T01:20:07.165Z,9.90
2023-04-19T01:22:40.199Z,9.80
2023-04-19T01:25:07.446Z,9.70
2023-04-19T01:27:34.086Z,9.70
2023-04-19T01:30:00.686Z,9.70
2023-04-19T01:32:27.409Z,9.70
2023-04-19T01:34:53.987Z,9.60
2023-04-19T01:37:20.679Z,9.60
2023-04-19T01:39:47.274Z,9.50
2023-04-19T01:42:13.967Z,9.50
2023-04-19T01:44:40.587Z,9.60
2023-04-19T01:47:07.189Z,9.60
2023-04-19T01:49:34.102Z,9.70
2023-04-19T01:52:00.756Z,9.60
2023-04-19T01:54:27.363Z,9.60
2023-04-19T01:56:53.962Z,9.60
2023-04-19T01:59:20.680Z,9.60
2023-04-19T02:01:47.502Z,9.70
2023-04-19T02:04:14.488Z,9.70
2023-04-19T02:06:41.383Z,9.70
2023-04-19T02:09:08.295Z,9.70
2023-04-19T02:11:35.020Z,9.70
2023-04-19T02:14:01.676Z,9.70
2023-04-19T02:16:29.189Z,9.70
2023-04-19T02:18:55.783Z,9.60
2023-04-19T02:21:22.377Z,9.60
2023-04-19T02:23:48.955Z,9.60
2023-04-19T02:26:15.582Z,9.50
2023-04-19T02:28:42.181Z,9.40
2023-04-19T02:31:08.801Z,9.40
2023-04-19T02:33:36.285Z,9.40
2023-04-19T02:36:03.004Z,9.50
2023-04-19T02:38:29.601Z,9.50
2023-04-19T02:40:56.204Z,9.60
2023-04-19T02:43:22.789Z,9.60
2023-04-19T02:45:49.449Z,9.60
2023-04-19T02:48:16.142Z,9.60
2023-04-19T02:50:42.745Z,9.50
2023-04-19T02:53:09.358Z,9.50
2023-04-19T02:55:36.042Z,9.50
2023-04-19T02:58:02.667Z,9.60
2023-04-19T03:00:29.499Z,9.50
2023-04-19T03:02:57.091Z,9.60
2023-04-19T03:05:23.935Z,9.60
2023-04-19T03:07:50.538Z,9.70
2023-04-19T03:10:17.207Z,9.70
2023-04-19T03:12:43.868Z,9.70
2023-04-19T03:15:11.122Z,9.70
2023-04-19T03:17:37.841Z,9.70
2023-04-19T03:20:09.722Z,9.70
2023-04-19T03:22:36.313Z,9.70
2023-04-19T03:25:03.237Z,9.70
2023-04-19T03:27:29.997Z,9.60
2023-04-19T03:29:57.067Z,9.60
2023-04-19T03:32:23.735Z,9.60
2023-04-19T03:34:50.314Z,9.60
2023-04-19T03:37:16.933Z,9.70
2023-04-19T03:39:43.500Z,9.70
2023-04-19T03:42:10.577Z,9.70
2023-04-19T03:44:37.230Z,9.80
2023-04-19T03:47:03.911Z,9.80
2023-04-19T03:49:30.599Z,9.90
2023-04-19T03:51:57.307Z,9.90
2023-04-19T03:54:23.905Z,9.90
2023-04-19T03:56:50.509Z,10.00
2023-04-19T03:59:17.086Z,10.00
2023-04-19T04:01:43.766Z,10.00
2023-04-19T04:04:11.902Z,10.00
2023-04-19T04:06:38.760Z,10.00
2023-04-19T04:09:05.416Z,10.10
2023-04-19T04:11:32.044Z,10.00
2023-04-19T04:13:58.648Z,10.10
2023-04-19T04:16:25.340Z,10.10
2023-04-19T04:18:52.037Z,10.20
2023-04-19T04:21:18.825Z,10.20
2023-04-19T04:23:45.554Z,10.10
2023-04-19T04:26:13.728Z,10.10
2023-04-19T04:28:40.404Z,10.10
2023-04-19T04:31:07.108Z,10.10
2023-04-19T04:33:33.685Z,10.10
2023-04-19T04:36:00.261Z,10.10
2023-04-19T04:38:27.345Z,10.20
2023-04-19T04:40:54.866Z,10.10
2023-04-19T04:43:25.818Z,10.10
2023-04-19T04:45:55.487Z,10.00
2023-04-19T04:48:22.217Z,10.00
2023-04-19T04:50:48.821Z,10.00
2023-04-19T04:53:15.628Z,10.00
2023-04-19T04:55:42.199Z,10.00
2023-04-19T04:58:08.920Z,10.00
2023-04-19T05:00:35.863Z,10.00
2023-04-19T05:03:03.045Z,10.00
2023-04-19T05:05:30.054Z,10.00
2023-04-19T05:07:56.710Z,10.00
2023-04-19T05:10:23.399Z,10.10
2023-04-19T05:12:50.129Z,10.10
2023-04-19T05:15:16.770Z,10.10
2023-04-19T05:17:43.664Z,10.10
2023-04-19T05:20:10.682Z,10.10
2023-04-19T05:22:37.628Z,10.10
2023-04-19T05:25:06.018Z,10.20
2023-04-19T05:27:32.687Z,10.20
2023-04-19T05:29:59.264Z,10.20
2023-04-19T05:32:26.128Z,10.20
2023-04-19T05:34:52.783Z,10.20
2023-04-19T05:37:19.445Z,10.20
2023-04-19T05:39:46.071Z,10.20
2023-04-19T05:42:12.866Z,10.20
2023-04-19T05:44:39.441Z,10.30
2023-04-19T05:47:06.059Z,10.30
2023-04-19T05:49:32.650Z,10.40
2023-04-19T05:51:59.257Z,10.40
2023-04-19T05:54:26.132Z,10.50
2023-04-19T05:56:52.771Z,10.50
2023-04-19T05:59:19.436Z,10.50
2023-04-19T06:01:46.151Z,10.50
2023-04-19T06:04:13.991Z,10.50
2023-04-19T06:06:40.912Z,10.60
2023-04-19T06:09:07.575Z,10.70
2023-04-19T06:11:42.993Z,10.70
2023-04-19T06:14:14.840Z,10.70
2023-04-19T06:16:42.104Z,10.70
2023-04-19T06:19:08.751Z,10.70
2023-04-19T06:21:35.838Z,10.70
2023-04-19T06:24:02.524Z,10.80
2023-04-19T06:26:29.177Z,10.80
2023-04-19T06:28:55.929Z,10.80
2023-04-19T06:31:22.708Z,10.80
2023-04-19T06:33:49.390Z,10.70
2023-04-19T06:36:16.182Z,10.70
2023-04-19T06:38:44.667Z,10.70
2023-04-19T06:41:11.497Z,10.70
2023-04-19T06:43:40.603Z,10.70
2023-04-19T06:46:09.881Z,10.80
2023-04-19T06:48:36.717Z,10.80
2023-04-19T06:51:03.480Z,10.70
2023-04-19T06:53:30.266Z,10.60
2023-04-19T06:56:01.669Z,10.40
2023-04-19T06:58:28.609Z,10.50
2023-04-19T07:00:55.723Z,10.40
2023-04-19T07:03:22.927Z,10.40
2023-04-19T07:05:52.060Z,10.30
2023-04-19T07:08:18.706Z,10.30
2023-04-19T07:10:45.381Z,10.30
2023-04-19T07:13:12.094Z,10.30
2023-04-19T07:15:38.985Z,10.30
2023-04-19T07:18:05.930Z,10.30
2023-04-19T07:20:32.991Z,10.30
2023-04-19T07:22:59.784Z,10.30
2023-04-19T07:25:26.534Z,10.40
2023-04-19T07:27:54.720Z,10.40
2023-04-19T07:30:21.462Z,10.40
2023-04-19T07:32:48.587Z,10.50
2023-04-19T07:35:15.441Z,10.50
2023-04-19T07:37:42.653Z,10.40
2023-04-19T07:40:09.912Z,10.40
2023-04-19T07:42:36.676Z,10.40
2023-04-19T07:45:03.536Z,10.40
2023-04-19T07:47:31.262Z,10.50
2023-04-19T07:49:57.988Z,10.60
2023-04-19T07:52:24.663Z,10.60
2023-04-19T07:54:51.322Z,10.60
2023-04-19T07:57:17.917Z,10.60
2023-04-19T07:59:44.513Z,10.70
2023-04-19T08:02:11.314Z,10.80
2023-04-19T08:04:38.408Z,10.80
2023-04-19T08:07:05.391Z,10.80
2023-04-19T08:09:34.293Z,10.80
2023-04-19T08:12:01.343Z,10.80
2023-04-19T08:14:37.457Z,10.90
2023-04-19T08:17:25.635Z,10.90
2023-04-19T08:19:54.984Z,11.00
2023-04-19T08:22:21.680Z,11.00
2023-04-19T08:24:51.974Z,11.10
2023-04-19T08:27:19.518Z,11.10
2023-04-19T08:29:46.397Z,11.20
2023-04-19T08:32:13.221Z,11.20
2023-04-19T08:34:40.492Z,11.30
2023-04-19T08:37:07.651Z,11.40
2023-04-19T08:39:35.174Z,11.50
2023-04-19T08:42:10.995Z,11.50
2023-04-19T08:45:05.712Z,11.60
2023-04-19T08:47:34.493Z,11.70
2023-04-19T08:52:39.136Z,11.90
2023-04-19T08:55:11.608Z,12.00
2023-04-19T08:57:38.194Z,12.10
2023-04-19T09:00:11.303Z,12.20
2023-04-19T09:02:48.902Z,12.20
2023-04-19T09:05:21.105Z,12.30
2023-04-19T09:07:48.089Z,12.40
2023-04-19T09:10:19.717Z,12.50
2023-04-19T09:13:03.696Z,12.60
2023-04-19T09:15:38.323Z,12.70
2023-04-19T09:18:07.191Z,12.80
2023-04-19T09:20:44.210Z,12.90
2023-04-19T09:23:18.741Z,13.00
2023-04-19T09:26:19.039Z,13.10
2023-04-19T09:28:59.409Z,13.20
2023-04-19T09:31:43.336Z,13.20
2023-04-19T09:34:17.879Z,13.20
2023-04-19T09:36:44.697Z,13.20
2023-04-19T09:39:12.105Z,13.20
2023-04-19T09:41:54.584Z,13.20
2023-04-19T09:46:53.918Z,13.20
2023-04-19T09:49:37.682Z,13.30
2023-04-19T09:52:14.790Z,13.40
2023-04-19T09:54:42.032Z,13.50
2023-04-19T09:57:08.734Z,13.60
2023-04-19T09:59:35.426Z,13.50
2023-04-19T10:02:04.916Z,13.60
2023-04-19T10:04:50.009Z,13.50
2023-04-19T10:07:30.194Z,13.60
2023-04-19T10:10:11.750Z,13.70
2023-04-19T10:13:11.060Z,13.70
2023-04-19T10:18:07.800Z,14.00
2023-04-19T10:20:46.609Z,14.00
2023-04-19T10:23:13.700Z,14.10
2023-04-19T10:25:40.329Z,14.20
2023-04-19T10:28:07.054Z,14.20
2023-04-19T10:30:33.723Z,14.20
2023-04-19T10:33:02.918Z,14.10
2023-04-19T10:35:37.867Z,14.20
2023-04-19T10:38:14.079Z,14.20
2023-04-19T10:41:00.666Z,14.30
2023-04-19T10:43:34.490Z,14.40
2023-04-19T10:46:09.626Z,14.40
2023-04-19T10:48:38.942Z,14.50
2023-04-19T10:51:22.527Z,14.60
2023-04-19T10:53:53.591Z,14.70
2023-04-19T10:56:38.105Z,14.80
2023-04-19T10:59:11.655Z,14.90
2023-04-19T11:01:46.815Z,15.00
2023-04-19T11:04:19.643Z,15.00
2023-04-19T11:06:52.649Z,15.00
2023-04-19T11:09:39.530Z,15.00
2023-04-19T11:12:11.219Z,15.10
2023-04-19T11:14:44.192Z,15.10
2023-04-19T11:17:31.644Z,15.10
2023-04-19T11:20:09.798Z,15.10
2023-04-19T11:22:39.444Z,15.10
2023-04-19T11:25:14.698Z,15.10
2023-04-19T11:27:42.907Z,15.10
2023-04-19T11:30:21.460Z,15.10
2023-04-19T11:35:22.082Z,15.00
2023-04-19T11:37:49.551Z,15.00
2023-04-19T11:40:17.897Z,15.10
2023-04-19T11:42:45.581Z,15.10
2023-04-19T11:45:29.213Z,15.10
2023-04-19T11:47:57.792Z,15.20
2023-04-19T11:50:30.590Z,15.30
2023-04-19T11:52:58.101Z,15.50
2023-04-19T11:55:25.309Z,15.50
2023-04-19T11:57:52.096Z,15.50
2023-04-19T12:00:28.818Z,15.50
2023-04-19T12:02:56.149Z,15.30
2023-04-19T12:05:23.713Z,15.30
2023-04-19T12:08:05.375Z,15.40
2023-04-19T12:10:32.649Z,15.40
2023-04-19T12:12:59.830Z,15.40
2023-04-19T12:15:46.583Z,15.20
2023-04-19T12:18:13.210Z,15.10
2023-04-19T12:20:46.041Z,15.10
2023-04-19T12:23:16.266Z,15.00
2023-04-19T12:25:44.732Z,14.90
2023-04-19T12:28:11.690Z,14.80
2023-04-19T12:30:39.560Z,15.00
2023-04-19T12:33:08.029Z,15.00
2023-04-19T12:35:35.910Z,14.80
2023-04-19T12:38:03.306Z,14.90
2023-04-19T12:40:30.720Z,14.90
2023-04-19T12:42:57.436Z,14.80
2023-04-19T12:45:24.064Z,14.80
2023-04-19T12:47:51.056Z,15.10
2023-04-19T12:50:17.710Z,15.20
2023-04-19T12:52:45.961Z,15.10
2023-04-19T12:55:12.615Z,15.20
2023-04-19T12:57:39.453Z,15.20
2023-04-19T13:00:11.184Z,15.30
2023-04-19T13:02:38.747Z,15.20
2023-04-19T13:05:06.380Z,15.30
2023-04-19T13:07:33.173Z,15.40
2023-04-19T13:09:59.950Z,15.40
2023-04-19T13:12:26.606Z,15.40
2023-04-19T13:14:53.482Z,15.40
2023-04-19T13:17:20.649Z,15.40
2023-04-19T13:19:47.719Z,15.40
2023-04-19T13:22:14.814Z,15.30
2023-04-19T13:24:41.498Z,15.20
2023-04-19T13:27:09.074Z,15.10
2023-04-19T13:29:36.395Z,15.10
2023-04-19T13:32:03.534Z,15.10
2023-04-19T13:34:31.025Z,15.10
2023-04-19T13:36:58.209Z,15.20
2023-04-19T13:39:25.055Z,15.30
2023-04-19T13:41:51.662Z,15.30
2023-04-19T13:44:18.523Z,15.40
2023-04-19T13:46:45.441Z,15.40
2023-04-19T13:49:12.166Z,15.30
2023-04-19T13:51:49.082Z,15.30
2023-04-19T13:54:18.149Z,15.40
2023-04-19T13:56:45.394Z,15.50
2023-04-19T13:59:12.045Z,15.60
2023-04-19T14:01:38.968Z,15.60
2023-04-19T14:04:05.856Z,15.60
2023-04-19T14:06:32.727Z,15.60
2023-04-19T14:08:59.383Z,15.70
2023-04-19T14:11:26.147Z,15.70
2023-04-19T14:13:53.428Z,15.60
2023-04-19T14:16:20.975Z,15.60
2023-04-19T14:18:47.847Z,15.60
2023-04-19T14:21:14.467Z,15.50
2023-04-19T14:23:41.065Z,15.40
2023-04-19T14:26:07.724Z,15.10
2023-04-19T14:28:34.353Z,15.10
2023-04-19T14:31:00.939Z,15.20
2023-04-19T14:33:27.681Z,15.10
2023-04-19T14:35:54.382Z,14.90
2023-04-19T14:38:21.144Z,14.80
2023-04-19T14:40:48.218Z,14.80
2023-04-19T14:43:16.619Z,14.80
2023-04-19T14:45:43.322Z,14.90
2023-04-19T14:48:10.046Z,14.70
2023-04-19T14:50:36.740Z,14.70
2023-04-19T14:53:03.373Z,14.70
2023-04-19T14:55:30.037Z,14.80
2023-04-19T14:57:56.622Z,14.80
2023-04-19T15:00:23.336Z,14.90
2023-04-19T15:02:50.249Z,15.00
2023-04-19T15:05:17.219Z,15.10
2023-04-19T15:07:44.061Z,15.20
2023-04-19T15:10:10.902Z,15.00
2023-04-19T15:12:37.491Z,14.90
2023-04-19T15:15:05.409Z,14.50
2023-04-19T15:17:32.346Z,14.40
2023-04-19T15:19:59.158Z,14.40
2023-04-19T15:22:28.448Z,14.50
2023-04-19T15:24:55.041Z,14.50
2023-04-19T15:27:21.728Z,14.60
2023-04-19T15:29:48.403Z,14.50
2023-04-19T15:32:15.072Z,14.30
2023-04-19T15:34:41.642Z,14.20
2023-04-19T15:37:08.548Z,14.00
2023-04-19T15:39:35.310Z,14.20
2023-04-19T15:42:03.144Z,14.40
2023-04-19T15:44:30.097Z,14.50
2023-04-19T15:46:56.921Z,14.50
2023-04-19T15:49:23.572Z,14.40
2023-04-19T15:51:50.156Z,14.30
2023-04-19T15:54:16.842Z,14.20
2023-04-19T15:56:43.506Z,14.30
2023-04-19T15:59:10.179Z,14.30
2023-04-19T16:01:39.297Z,14.30
2023-04-19T16:04:06.143Z,14.30
2023-04-19T16:06:32.997Z,14.30
2023-04-19T16:08:59.597Z,14.30
2023-04-19T16:11:26.332Z,14.40
2023-04-19T16:13:52.930Z,14.20
2023-04-19T16:16:19.654Z,14.10
2023-04-19T16:18:47.044Z,13.90
2023-04-19T16:21:13.622Z,13.80
2023-04-19T16:23:40.310Z,13.80
2023-04-19T16:26:07.680Z,13.80
2023-04-19T16:28:34.605Z,14.00
2023-04-19T16:31:01.261Z,14.20
2023-04-19T16:33:27.950Z,14.10
2023-04-19T16:35:54.718Z,14.00
2023-04-19T16:38:21.423Z,13.90
2023-04-19T16:40:48.738Z,13.80
2023-04-19T16:43:16.538Z,13.80
2023-04-19T16:45:43.298Z,13.90
2023-04-19T16:48:10.423Z,13.80
2023-04-19T16:50:37.079Z,14.00
2023-04-19T16:53:03.793Z,13.90
2023-04-19T16:55:30.454Z,14.00
2023-04-19T16:57:57.046Z,13.80
2023-04-19T17:00:24.456Z,13.80
2023-04-19T17:02:53.119Z,13.70
2023-04-19T17:05:20.051Z,13.80
2023-04-19T17:07:46.656Z,13.70
2023-04-19T17:10:13.392Z,13.70
2023-04-19T17:12:40.319Z,13.80
2023-04-19T17:15:07.273Z,13.80
2023-04-19T17:17:34.082Z,13.80
2023-04-19T17:20:01.197Z,13.80
2023-04-19T17:22:27.878Z,13.70
2023-04-19T17:24:56.849Z,13.80
2023-04-19T17:27:23.444Z,13.80
2023-04-19T17:29:50.152Z,13.70
2023-04-19T17:32:16.800Z,13.60
2023-04-19T17:34:43.482Z,13.60
2023-04-19T17:37:10.205Z,13.60
2023-04-19T17:39:36.775Z,13.70
2023-04-19T17:42:03.475Z,13.50
2023-04-19T17:44:30.144Z,13.50
2023-04-19T17:46:57.339Z,13.50
2023-04-19T17:49:24.867Z,13.40
2023-04-19T17:51:53.061Z,13.40
2023-04-19T17:54:21.846Z,13.40
2023-04-19T17:56:48.901Z,13.50
2023-04-19T17:59:15.888Z,13.40
2023-04-19T18:01:42.826Z,13.40
2023-04-19T18:04:11.693Z,13.40
2023-04-19T18:06:38.454Z,13.40
2023-04-19T18:09:05.252Z,13.40
2023-04-19T18:11:32.048Z,13.30
2023-04-19T18:13:58.825Z,13.30
2023-04-19T18:16:25.546Z,13.40
2023-04-19T18:18:52.253Z,13.40
2023-04-19T18:21:18.896Z,13.40
2023-04-19T18:23:45.698Z,13.40
2023-04-19T18:26:12.413Z,13.40
2023-04-19T18:28:39.423Z,13.40
2023-04-19T18:31:07.345Z,13.40
2023-04-19T18:33:34.063Z,13.40
2023-04-19T18:36:00.705Z,13.40
2023-04-19T18:38:27.400Z,13.30
2023-04-19T18:40:54.045Z,13.30
2023-04-19T18:43:20.802Z,13.30
2023-04-19T18:45:56.557Z,13.20
2023-04-19T18:48:28.085Z,13.30
2023-04-19T18:50:55.348Z,13.30
2023-04-19T18:53:21.979Z,13.20
2023-04-19T18:55:48.684Z,13.20
2023-04-19T18:58:15.316Z,13.10
2023-04-19T19:00:42.095Z,13.10
2023-04-19T19:03:19.126Z,13.00
2023-04-19T19:05:55.783Z,12.90
2023-04-19T19:08:22.578Z,12.90
2023-04-19T19:11:13.699Z,12.80
2023-04-19T19:13:36.189Z,12.90
2023-04-19T19:16:04.603Z,12.80
2023-04-19T19:18:31.949Z,12.80
2023-04-19T19:21:00.188Z,12.80
2023-04-19T19:25:58.248Z,12.70
2023-04-19T19:28:25.089Z,12.70
2023-04-19T19:30:51.750Z,12.70
2023-04-19T19:33:18.566Z,12.70
2023-04-19T19:35:45.682Z,12.60
2023-04-19T19:38:12.280Z,12.60
2023-04-19T19:41:04.063Z,12.50
2023-04-19T19:43:25.593Z,12.50
2023-04-19T19:45:52.188Z,12.50
2023-04-19T19:48:18.834Z,12.50
2023-04-19T19:51:20.463Z,12.60
2023-04-19T19:53:32.538Z,12.50
2023-04-19T19:55:59.815Z,12.40
2023-04-19T20:01:03.163Z,12.50
2023-04-19T20:03:37.284Z,12.50
2023-04-19T20:06:35.752Z,12.50
2023-04-19T20:08:56.170Z,12.40
2023-04-19T20:11:23.480Z,12.40
2023-04-19T20:13:50.669Z,12.40
2023-04-19T20:16:20.909Z,12.40
2023-04-19T20:18:52.720Z,12.40
2023-04-19T20:21:20.330Z,12.40
2023-04-19T20:23:47.225Z,12.40
2023-04-19T20:26:13.948Z,12.30
2023-04-19T20:28:40.784Z,12.40
2023-04-19T20:31:07.458Z,12.40
2023-04-19T20:33:34.265Z,12.30
2023-04-19T20:36:01.687Z,12.30
2023-04-19T20:38:28.517Z,12.30
2023-04-19T20:40:56.508Z,12.20
2023-04-19T20:43:23.173Z,12.10
2023-04-19T20:45:49.777Z,11.90
2023-04-19T20:48:17.543Z,12.00
2023-04-19T20:50:44.182Z,11.90
2023-04-19T20:53:10.820Z,11.80
2023-04-19T20:55:38.259Z,11.80
2023-04-19T20:58:04.948Z,11.80
2023-04-19T21:00:31.608Z,11.70
2023-04-19T21:02:58.410Z,11.70
2023-04-19T21:05:25.144Z,11.00
2023-04-19T21:07:51.757Z,11.00
2023-04-19T21:10:18.672Z,10.80
2023-04-19T21:12:45.499Z,10.80
2023-04-19T21:15:12.204Z,10.70
2023-04-19T21:17:39.519Z,10.30
2023-04-19T21:20:12.140Z,10.20
2023-04-19T21:22:42.833Z,10.20
2023-04-19T21:25:10.400Z,10.10
2023-04-19T21:27:37.069Z,9.70
2023-04-19T21:30:04.427Z,9.60
2023-04-19T21:32:31.176Z,9.40
2023-04-19T21:34:59.521Z,9.20
2023-04-19T21:37:26.601Z,9.20
2023-04-19T21:39:53.687Z,9.40
2023-04-19T21:42:20.833Z,9.30
2023-04-19T21:44:47.466Z,9.20
2023-04-19T21:47:14.135Z,9.30
2023-04-19T21:49:41.398Z,9.30
2023-04-19T21:52:08.158Z,9.20
2023-04-19T21:54:34.930Z,9.10
2023-04-19T21:57:02.121Z,9.20
2023-04-19T21:59:30.672Z,9.20
2023-04-19T22:01:58.655Z,9.10
2023-04-19T22:04:26.160Z,9.20
2023-04-19T22:06:52.761Z,9.10
2023-04-19T22:09:19.400Z,9.20
2023-04-19T22:11:46.141Z,9.10
2023-04-19T22:14:13.220Z,9.10
2023-04-19T22:16:39.953Z,9.20
2023-04-19T22:19:07.779Z,9.00
2023-04-19T22:21:34.387Z,9.10
2023-04-19T22:24:00.998Z,9.20
2023-04-19T22:26:27.900Z,9.20
2023-04-19T22:28:54.611Z,8.90
2023-04-19T22:31:21.380Z,9.00
2023-04-19T22:33:48.043Z,8.90
2023-04-19T22:36:14.610Z,9.00
2023-04-19T22:38:41.166Z,8.80
2023-04-19T22:41:07.764Z,8.80
2023-04-19T22:43:34.374Z,8.70
2023-04-19T22:46:01.229Z,8.60
2023-04-19T22:48:30.046Z,8.70
2023-04-19T22:50:56.938Z,8.70
2023-04-19T22:53:23.836Z,8.60
2023-04-19T22:55:51.334Z,8.70
2023-04-19T22:58:19.062Z,8.60
2023-04-19T23:00:45.948Z,8.60
2023-04-19T23:03:12.629Z,8.40
2023-04-19T23:05:40.255Z,8.30
2023-04-19T23:08:07.143Z,8.20
2023-04-19T23:10:37.829Z,8.30
2023-04-19T23:13:05.855Z,8.20
2023-04-19T23:15:33.036Z,8.20
2023-04-19T23:18:02.060Z,8.10
2023-04-19T23:20:29.104Z,8.20
2023-04-19T23:22:55.799Z,8.10
2023-04-19T23:25:22.444Z,8.10
2023-04-19T23:27:50.288Z,8.10
2023-04-19T23:30:17.920Z,8.10
2023-04-19T23:32:44.695Z,8.20
2023-04-19T23:35:11.498Z,8.10
2023-04-19T23:37:38.112Z,8.20
2023-04-19T23:40:08.211Z,8.10
2023-04-19T23:42:36.228Z,8.10
2023-04-19T23:45:03.118Z,8.10
2023-04-19T23:47:29.734Z,8.00
2023-04-19T23:49:56.325Z,8.00
2023-04-19T23:52:23.021Z,8.10
2023-04-19T23:54:49.675Z,8.10
2023-04-19T23:57:16.316Z,8.20
2023-04-19T23:59:42.995Z,8.30
